Time;durP1;ratioP1;P1;durP2;ratioP2;P2;SDS_P1;SDS_P2;PMS_P1;PMS_P2;Temp;Humidity;BMP_temperature;BMP_pressure;BME280_temperature;BME280_humidity;BME280_pressure;Samples;Min_cycle;Max_cycle;Signal;HPM_P1;HPM_P2
2020/12/06 00:02:12;;;;;;;31.57;24.60;;;;;;;;;;5056581;28;20251;-93
2020/12/06 00:04:44;;;;;;;28.63;25.53;;;;;;;;;;5056239;28;20249;-92
2020/12/06 00:07:16;;;;;;;27.60;24.70;;;;;;;;;;5056492;28;20186;-92
2020/12/06 00:09:51;;;;;;;29.73;25.60;;;;;;;;;;5057081;28;20222;-92
2020/12/06 00:12:24;;;;;;;28.97;24.67;;;;;;;;;;5057942;28;20166;-92
2020/12/06 00:14:56;;;;;;;30.30;25.50;;;;;;;;;;5057391;28;20206;-92
2020/12/06 00:17:28;;;;;;;28.37;25.37;;;;;;;;;;5056942;28;20260;-93
2020/12/06 00:19:59;;;;;;;30.47;27.27;;;;;;;;;;5056393;28;20209;-92
2020/12/06 00:22:32;;;;;;;32.10;27.10;;;;;;;;;;5056480;28;20180;-92
2020/12/06 00:24:58;;;;;;;32.00;26.77;;;;;;;;;;5056437;28;20186;-91
2020/12/06 00:27:25;;;;;;;31.70;26.37;;;;;;;;;;5054465;28;20205;-90
2020/12/06 00:29:55;;;;;;;32.83;26.83;;;;;;;;;;5054994;28;20272;-91
2020/12/06 00:32:25;;;;;;;31.23;25.63;;;;;;;;;;5054972;28;20186;-91
2020/12/06 00:34:52;;;;;;;29.47;25.63;;;;;;;;;;5054403;28;20193;-91
2020/12/06 00:37:24;;;;;;;31.47;25.63;;;;;;;;;;5054799;28;20642;-91
2020/12/06 00:39:58;;;;;;;29.50;24.23;;;;;;;;;;5054612;28;20206;-91
2020/12/06 00:42:31;;;;;;;32.73;25.13;;;;;;;;;;5054524;28;20593;-91
2020/12/06 00:45:01;;;;;;;27.10;24.23;;;;;;;;;;5054810;28;20201;-92
2020/12/06 00:47:35;;;;;;;30.33;25.43;;;;;;;;;;5054777;28;20238;-91
2020/12/06 00:50:06;;;;;;;28.40;25.07;;;;;;;;;;5054257;28;20216;-91
2020/12/06 00:52:37;;;;;;;30.80;26.00;;;;;;;;;;5054598;28;20180;-91
2020/12/06 00:55:04;;;;;;;31.80;25.20;;;;;;;;;;5054350;28;20609;-91
2020/12/06 00:57:40;;;;;;;27.40;24.50;;;;;;;;;;5055429;28;20175;-90
2020/12/06 01:00:15;;;;;;;32.47;25.93;;;;;;;;;;5055375;28;20209;-91
2020/12/06 01:02:45;;;;;;;34.33;24.93;;;;;;;;;;5054617;28;20186;-90
2020/12/06 01:05:12;;;;;;;27.87;24.90;;;;;;;;;;5054677;28;20187;-90
2020/12/06 01:07:44;;;;;;;32.17;26.77;;;;;;;;;;5055391;28;20202;-90
2020/12/06 01:10:17;;;;;;;30.63;26.37;;;;;;;;;;5054746;28;20197;-92
2020/12/06 01:12:47;;;;;;;29.03;25.83;;;;;;;;;;5056447;28;20180;-92
2020/12/06 01:15:16;;;;;;;31.63;26.13;;;;;;;;;;5057391;28;20202;-92
2020/12/06 01:17:48;;;;;;;33.23;26.07;;;;;;;;;;5056805;28;20192;-92
2020/12/06 01:20:25;;;;;;;31.03;25.83;;;;;;;;;;5056804;28;20191;-92
2020/12/06 01:23:00;;;;;;;32.13;24.40;;;;;;;;;;5055149;28;20191;-92
2020/12/06 01:25:27;;;;;;;32.20;26.20;;;;;;;;;;5054178;28;20179;-92
2020/12/06 01:28:01;;;;;;;35.27;25.57;;;;;;;;;;5053934;28;20201;-92
2020/12/06 01:30:35;;;;;;;28.97;25.47;;;;;;;;;;5053854;28;20189;-92
2020/12/06 01:33:09;;;;;;;30.83;25.70;;;;;;;;;;5054477;28;20209;-92
2020/12/06 01:35:39;;;;;;;33.77;26.80;;;;;;;;;;5054136;28;20292;-92
2020/12/06 01:38:11;;;;;;;36.73;28.60;;;;;;;;;;5053242;28;20566;-92
2020/12/06 01:40:47;;;;;;;33.87;28.60;;;;;;;;;;5053700;28;20200;-92
2020/12/06 01:43:19;;;;;;;31.67;26.10;;;;;;;;;;5053858;28;20172;-92
2020/12/06 01:45:51;;;;;;;35.10;27.50;;;;;;;;;;5053742;28;20179;-92
2020/12/06 01:48:24;;;;;;;30.20;25.10;;;;;;;;;;5053468;28;20214;-91
2020/12/06 01:50:54;;;;;;;34.13;27.83;;;;;;;;;;5053600;28;20312;-92
2020/12/06 01:53:30;;;;;;;34.13;27.97;;;;;;;;;;5053375;28;20640;-92
2020/12/06 01:55:59;;;;;;;33.90;29.20;;;;;;;;;;5053169;28;20188;-92
2020/12/06 01:58:31;;;;;;;31.43;27.00;;;;;;;;;;5053474;28;20225;-92
2020/12/06 02:01:04;;;;;;;36.60;28.03;;;;;;;;;;5053100;28;20204;-92
2020/12/06 02:03:35;;;;;;;34.50;28.00;;;;;;;;;;5053328;28;20269;-92
2020/12/06 02:06:06;;;;;;;36.07;29.10;;;;;;;;;;5053307;28;20181;-91
2020/12/06 02:08:36;;;;;;;33.67;29.23;;;;;;;;;;5052998;28;20294;-91
2020/12/06 02:11:09;;;;;;;34.57;29.33;;;;;;;;;;5053224;28;20195;-92
2020/12/06 02:13:39;;;;;;;33.50;27.67;;;;;;;;;;5052974;28;20230;-91
2020/12/06 02:16:16;;;;;;;32.80;27.47;;;;;;;;;;5053144;28;20595;-91
2020/12/06 02:18:49;;;;;;;36.37;28.53;;;;;;;;;;5053142;28;20183;-92
2020/12/06 02:21:17;;;;;;;32.87;26.77;;;;;;;;;;5053129;28;20196;-92
2020/12/06 02:23:47;;;;;;;30.70;27.27;;;;;;;;;;5052934;28;20188;-92
2020/12/06 02:26:16;;;;;;;36.07;28.23;;;;;;;;;;5052755;28;20180;-92
2020/12/06 02:28:48;;;;;;;39.10;27.83;;;;;;;;;;5052767;28;20295;-92
2020/12/06 02:31:18;;;;;;;36.63;28.20;;;;;;;;;;5052702;28;20230;-92
2020/12/06 02:33:51;;;;;;;36.00;27.23;;;;;;;;;;5052657;28;20671;-92
2020/12/06 02:36:24;;;;;;;32.40;25.80;;;;;;;;;;5052875;28;20271;-92
2020/12/06 02:38:58;;;;;;;36.10;29.60;;;;;;;;;;5052689;28;20185;-92
2020/12/06 02:41:41;;;;;;;35.40;27.50;;;;;;;;;;5052812;28;20295;-92
2020/12/06 02:44:12;;;;;;;33.73;28.50;;;;;;;;;;5052646;28;20599;-91
2020/12/06 02:46:48;;;;;;;43.80;31.70;;;;;;;;;;5052638;28;20661;-92
2020/12/06 02:49:18;;;;;;;38.30;31.73;;;;;;;;;;5052048;28;20689;-91
2020/12/06 02:51:48;;;;;;;37.77;30.03;;;;;;;;;;5052575;28;20176;-92
2020/12/06 02:54:21;;;;;;;41.13;29.93;;;;;;;;;;5052511;28;20231;-91
2020/12/06 02:56:54;;;;;;;42.13;30.40;;;;;;;;;;5052329;28;20227;-91
2020/12/06 02:59:25;;;;;;;40.73;31.00;;;;;;;;;;5052483;28;20204;-92
2020/12/06 03:01:58;;;;;;;37.67;30.13;;;;;;;;;;5052346;28;20212;-92
2020/12/06 03:04:31;;;;;;;34.13;29.37;;;;;;;;;;5052206;28;20652;-92
2020/12/06 03:07:01;;;;;;;35.20;29.80;;;;;;;;;;5052854;28;20588;-92
2020/12/06 03:09:33;;;;;;;37.50;30.13;;;;;;;;;;5052050;28;20237;-92
2020/12/06 03:12:05;;;;;;;36.67;30.63;;;;;;;;;;5052498;28;20526;-92
2020/12/06 03:14:35;;;;;;;36.40;29.67;;;;;;;;;;5052311;28;20543;-91
2020/12/06 03:17:08;;;;;;;33.23;29.10;;;;;;;;;;5052219;28;20177;-91
2020/12/06 03:19:41;;;;;;;37.13;30.30;;;;;;;;;;5052265;28;20200;-92
2020/12/06 03:22:11;;;;;;;36.03;28.77;;;;;;;;;;5052339;28;20169;-92
2020/12/06 03:24:41;;;;;;;35.27;30.60;;;;;;;;;;5052282;28;20269;-92
2020/12/06 03:27:11;;;;;;;36.33;29.97;;;;;;;;;;5052063;28;20273;-91
2020/12/06 03:29:44;;;;;;;39.43;31.63;;;;;;;;;;5052103;28;20292;-91
2020/12/06 03:32:15;;;;;;;40.27;32.43;;;;;;;;;;5052421;28;20654;-92
2020/12/06 03:34:45;;;;;;;38.73;31.53;;;;;;;;;;5052356;28;20197;-91
2020/12/06 03:37:16;;;;;;;40.60;31.37;;;;;;;;;;5052253;28;20186;-91
2020/12/06 03:39:45;;;;;;;34.30;30.67;;;;;;;;;;5052196;28;20204;-91
2020/12/06 03:42:15;;;;;;;38.83;31.67;;;;;;;;;;5051988;28;20184;-92
2020/12/06 03:44:45;;;;;;;39.63;31.87;;;;;;;;;;5051973;28;20173;-91
2020/12/06 03:47:15;;;;;;;34.17;29.27;;;;;;;;;;5053423;28;20179;-92
2020/12/06 03:49:45;;;;;;;37.07;30.80;;;;;;;;;;5051757;28;20845;-91
2020/12/06 03:52:17;;;;;;;39.47;30.80;;;;;;;;;;5052076;28;20182;-92
2020/12/06 03:54:48;;;;;;;38.43;30.87;;;;;;;;;;5052411;28;20648;-91
2020/12/06 03:57:20;;;;;;;36.63;31.23;;;;;;;;;;5051881;28;20308;-91
2020/12/06 03:59:55;;;;;;;43.30;30.67;;;;;;;;;;5051776;28;20704;-92
2020/12/06 04:02:28;;;;;;;40.80;31.40;;;;;;;;;;5054472;28;20174;-92
2020/12/06 04:05:00;;;;;;;42.27;31.30;;;;;;;;;;5055465;28;20179;-92
2020/12/06 04:07:28;;;;;;;37.63;32.00;;;;;;;;;;5055393;28;20171;-92
2020/12/06 04:10:00;;;;;;;40.53;31.83;;;;;;;;;;5056008;28;20211;-92
2020/12/06 04:12:33;;;;;;;39.00;31.93;;;;;;;;;;5055644;28;20261;-92
2020/12/06 04:15:10;;;;;;;39.60;31.90;;;;;;;;;;5055400;28;20174;-92
2020/12/06 04:17:41;;;;;;;42.43;32.13;;;;;;;;;;5055421;28;20171;-92
2020/12/06 04:20:08;;;;;;;43.43;32.20;;;;;;;;;;5055206;28;20196;-92
2020/12/06 04:22:41;;;;;;;40.07;32.13;;;;;;;;;;5055538;28;20224;-91
2020/12/06 04:25:08;;;;;;;41.70;32.70;;;;;;;;;;5055214;28;20171;-92
2020/12/06 04:27:35;;;;;;;45.30;32.80;;;;;;;;;;5055355;28;20696;-92
2020/12/06 04:30:05;;;;;;;39.57;31.60;;;;;;;;;;5054805;28;20262;-92
2020/12/06 04:32:37;;;;;;;37.33;31.47;;;;;;;;;;5055267;28;20176;-92
2020/12/06 04:35:03;;;;;;;40.40;32.57;;;;;;;;;;5055118;28;20172;-91
2020/12/06 04:37:39;;;;;;;43.90;32.80;;;;;;;;;;5054906;28;20206;-92
2020/12/06 04:40:10;;;;;;;43.07;33.53;;;;;;;;;;5055669;28;20195;-92
2020/12/06 04:42:41;;;;;;;43.63;33.60;;;;;;;;;;5054947;28;20175;-92
2020/12/06 04:45:11;;;;;;;39.73;31.33;;;;;;;;;;5054779;28;20174;-92
2020/12/06 04:47:44;;;;;;;43.50;33.00;;;;;;;;;;5054699;28;20204;-92
2020/12/06 04:50:12;;;;;;;43.37;34.83;;;;;;;;;;5054377;28;20228;-91
2020/12/06 04:55:11;;;;;;;41.43;32.50;;;;;;;;;;5174064;22;20233;-84
2020/12/06 04:57:41;;;;;;;42.77;32.80;;;;;;;;;;5055415;28;20184;-84
2020/12/06 05:00:09;;;;;;;44.10;32.53;;;;;;;;;;5054178;28;20572;-84
2020/12/06 05:02:41;;;;;;;39.87;31.97;;;;;;;;;;5055747;28;20275;-84
2020/12/06 05:05:13;;;;;;;43.07;33.20;;;;;;;;;;5055185;28;20320;-84
2020/12/06 05:07:47;;;;;;;38.63;31.87;;;;;;;;;;5055167;28;20195;-84
2020/12/06 05:10:19;;;;;;;39.57;32.43;;;;;;;;;;5053855;28;20180;-85
2020/12/06 05:12:51;;;;;;;38.83;32.90;;;;;;;;;;5053798;28;20655;-84
2020/12/06 05:15:24;;;;;;;38.77;32.33;;;;;;;;;;5053879;28;20205;-84
2020/12/06 05:17:56;;;;;;;41.73;33.53;;;;;;;;;;5055442;28;20167;-85
2020/12/06 05:20:23;;;;;;;42.83;34.47;;;;;;;;;;5053767;28;20183;-85
2020/12/06 05:22:55;;;;;;;40.17;34.63;;;;;;;;;;5055188;28;20629;-84
2020/12/06 05:25:23;;;;;;;40.20;32.83;;;;;;;;;;5053678;28;20191;-84
2020/12/06 05:27:55;;;;;;;39.97;33.83;;;;;;;;;;5053753;28;20205;-85
2020/12/06 05:30:28;;;;;;;40.30;32.77;;;;;;;;;;5055033;28;20690;-85
2020/12/06 05:33:01;;;;;;;43.97;34.27;;;;;;;;;;5055326;28;20510;-85
2020/12/06 05:35:32;;;;;;;39.63;32.13;;;;;;;;;;5053455;28;20346;-85
2020/12/06 05:38:03;;;;;;;39.87;33.70;;;;;;;;;;5055008;28;20156;-84
2020/12/06 05:40:34;;;;;;;43.33;33.97;;;;;;;;;;5054756;28;20190;-84
2020/12/06 05:43:03;;;;;;;38.63;32.40;;;;;;;;;;5054754;28;20201;-85
2020/12/06 05:45:38;;;;;;;42.17;34.60;;;;;;;;;;5053726;28;20551;-85
2020/12/06 05:48:11;;;;;;;41.57;34.80;;;;;;;;;;5054873;28;20247;-85
2020/12/06 05:50:41;;;;;;;39.90;33.57;;;;;;;;;;5053130;28;20173;-85
2020/12/06 05:53:13;;;;;;;40.93;34.60;;;;;;;;;;5054255;28;20244;-85
2020/12/06 05:55:44;;;;;;;40.07;34.40;;;;;;;;;;5054941;28;20170;-85
2020/12/06 05:58:19;;;;;;;39.97;33.07;;;;;;;;;;5054263;28;20223;-85
2020/12/06 06:00:51;;;;;;;42.17;34.57;;;;;;;;;;5053009;28;20279;-85
2020/12/06 06:03:27;;;;;;;40.97;34.33;;;;;;;;;;5054175;28;20198;-85
2020/12/06 06:06:01;;;;;;;38.70;33.57;;;;;;;;;;5054450;28;20164;-85
2020/12/06 06:08:31;;;;;;;40.80;33.87;;;;;;;;;;5054156;28;20200;-85
2020/12/06 06:11:11;;;;;;;40.47;33.57;;;;;;;;;;5054307;28;20171;-85
2020/12/06 06:13:55;;;;;;;41.57;33.17;;;;;;;;;;5053988;28;20224;-85
2020/12/06 06:16:28;;;;;;;38.33;32.10;;;;;;;;;;5053167;28;20179;-85
2020/12/06 06:18:59;;;;;;;38.13;34.00;;;;;;;;;;5054327;28;20172;-85
2020/12/06 06:21:30;;;;;;;43.17;32.37;;;;;;;;;;5053778;28;20183;-85
2020/12/06 06:24:06;;;;;;;43.13;33.87;;;;;;;;;;5052030;28;20203;-85
2020/12/06 06:26:37;;;;;;;37.10;33.13;;;;;;;;;;5052430;28;20648;-85
2020/12/06 06:29:10;;;;;;;43.63;33.17;;;;;;;;;;5053823;28;20206;-85
2020/12/06 06:31:41;;;;;;;42.43;34.30;;;;;;;;;;5054022;28;20168;-85
2020/12/06 06:34:11;;;;;;;37.97;32.77;;;;;;;;;;5053721;28;20547;-85
2020/12/06 06:36:40;;;;;;;37.10;31.90;;;;;;;;;;5053475;28;20694;-85
2020/12/06 06:39:10;;;;;;;41.47;33.93;;;;;;;;;;5053629;28;20180;-85
2020/12/06 06:41:41;;;;;;;43.77;32.40;;;;;;;;;;5052378;28;20204;-85
2020/12/06 06:44:12;;;;;;;37.67;33.57;;;;;;;;;;5052143;28;20290;-85
2020/12/06 06:46:41;;;;;;;40.73;34.53;;;;;;;;;;5053410;28;20185;-85
2020/12/06 06:49:12;;;;;;;39.00;32.73;;;;;;;;;;5053212;28;20257;-85
2020/12/06 06:51:54;;;;;;;40.67;34.50;;;;;;;;;;5053476;28;20172;-85
2020/12/06 06:54:31;;;;;;;40.40;34.33;;;;;;;;;;5053365;28;20237;-85
2020/12/06 06:56:59;;;;;;;38.77;33.90;;;;;;;;;;5054025;28;20257;-85
2020/12/06 06:59:46;;;;;;;40.30;33.57;;;;;;;;;;5053385;28;20178;-85
2020/12/06 07:02:27;;;;;;;39.60;33.40;;;;;;;;;;5053939;28;20187;-85
2020/12/06 07:04:54;;;;;;;38.93;33.10;;;;;;;;;;5051911;28;20282;-85
2020/12/06 07:07:43;;;;;;;41.37;32.73;;;;;;;;;;5052026;28;20191;-85
2020/12/06 07:10:15;;;;;;;42.20;35.77;;;;;;;;;;5051961;28;20176;-85
2020/12/06 07:12:47;;;;;;;42.23;34.37;;;;;;;;;;5051714;28;20175;-85
2020/12/06 07:15:18;;;;;;;45.90;36.80;;;;;;;;;;5052001;28;20178;-85
2020/12/06 07:17:50;;;;;;;45.30;36.57;;;;;;;;;;5053012;28;20204;-85
2020/12/06 07:20:24;;;;;;;47.43;36.20;;;;;;;;;;5053224;28;20178;-85
2020/12/06 07:22:55;;;;;;;44.90;35.53;;;;;;;;;;5051770;28;20178;-85
2020/12/06 07:25:23;;;;;;;45.70;37.60;;;;;;;;;;5052834;28;20187;-85
2020/12/06 07:27:56;;;;;;;48.13;38.97;;;;;;;;;;5051618;28;20689;-85
2020/12/06 07:30:29;;;;;;;45.90;37.13;;;;;;;;;;5051738;28;20600;-86
2020/12/06 07:33:01;;;;;;;49.23;36.83;;;;;;;;;;5051516;28;20207;-85
2020/12/06 07:35:33;;;;;;;45.80;36.03;;;;;;;;;;5052825;28;20224;-85
2020/12/06 07:38:06;;;;;;;51.73;38.17;;;;;;;;;;5055617;28;20219;-85
2020/12/06 07:40:35;;;;;;;51.00;39.40;;;;;;;;;;5055454;28;20640;-85
2020/12/06 07:43:11;;;;;;;49.30;38.10;;;;;;;;;;5057007;28;20578;-84
2020/12/06 07:45:44;;;;;;;49.17;37.37;;;;;;;;;;5056694;28;20639;-85
2020/12/06 07:48:26;;;;;;;53.67;38.83;;;;;;;;;;5056748;28;20290;-85
2020/12/06 07:51:00;;;;;;;52.07;38.20;;;;;;;;;;5055822;28;20620;-85
2020/12/06 07:53:36;;;;;;;56.47;39.63;;;;;;;;;;5056315;28;20213;-85
2020/12/06 07:56:09;;;;;;;54.13;38.10;;;;;;;;;;5055635;28;20186;-85
2020/12/06 07:58:41;;;;;;;57.23;38.70;;;;;;;;;;5055354;28;20272;-85
2020/12/06 08:01:11;;;;;;;55.80;37.23;;;;;;;;;;5056727;28;20164;-85
2020/12/06 08:03:41;;;;;;;58.37;38.97;;;;;;;;;;5056494;28;20225;-85
2020/12/06 08:06:15;;;;;;;65.33;40.30;;;;;;;;;;5056231;28;20256;-85
2020/12/06 08:08:48;;;;;;;56.03;38.03;;;;;;;;;;5056383;28;20200;-85
2020/12/06 08:11:20;;;;;;;59.47;39.13;;;;;;;;;;5054974;28;20185;-85
2020/12/06 08:13:55;;;;;;;59.63;37.83;;;;;;;;;;5054828;28;20249;-85
2020/12/06 08:16:28;;;;;;;55.37;37.73;;;;;;;;;;5054849;28;20583;-85
2020/12/06 08:19:01;;;;;;;56.77;38.63;;;;;;;;;;5056049;28;20645;-85
2020/12/06 08:21:41;;;;;;;62.43;41.30;;;;;;;;;;5054561;28;20253;-85
2020/12/06 08:24:31;;;;;;;58.20;36.23;;;;;;;;;;5054674;28;20689;-85
2020/12/06 08:27:03;;;;;;;56.80;38.47;;;;;;;;;;5054768;28;20180;-85
2020/12/06 08:29:44;;;;;;;59.30;37.47;;;;;;;;;;5054586;28;20321;-85
2020/12/06 08:32:14;;;;;;;58.03;38.93;;;;;;;;;;5054430;28;20655;-85
2020/12/06 08:34:56;;;;;;;60.53;38.70;;;;;;;;;;5054393;28;20192;-85
2020/12/06 08:37:27;;;;;;;62.30;36.77;;;;;;;;;;5055814;28;20171;-85
2020/12/06 08:40:04;;;;;;;58.77;37.97;;;;;;;;;;5054424;28;20210;-85
2020/12/06 08:42:35;;;;;;;60.17;38.30;;;;;;;;;;5056081;28;20167;-84
2020/12/06 08:45:09;;;;;;;62.93;39.20;;;;;;;;;;5054316;28;20192;-85
2020/12/06 08:47:43;;;;;;;63.73;39.23;;;;;;;;;;5055237;28;20179;-86
2020/12/06 08:50:11;;;;;;;65.57;39.47;;;;;;;;;;5055402;28;20202;-85
2020/12/06 08:52:38;;;;;;;65.77;40.17;;;;;;;;;;5054165;28;20168;-85
2020/12/06 08:55:24;;;;;;;64.20;37.93;;;;;;;;;;5055213;28;20211;-85
2020/12/06 08:57:51;;;;;;;68.27;39.20;;;;;;;;;;5055436;28;20233;-85
2020/12/06 09:00:24;;;;;;;66.00;40.50;;;;;;;;;;5055088;28;20257;-85
2020/12/06 09:02:56;;;;;;;66.53;38.87;;;;;;;;;;5055890;28;20250;-85
2020/12/06 09:05:28;;;;;;;67.67;38.50;;;;;;;;;;5054321;28;20172;-85
2020/12/06 09:08:00;;;;;;;69.47;39.10;;;;;;;;;;5055517;28;20194;-85
2020/12/06 09:10:26;;;;;;;67.03;41.40;;;;;;;;;;5055482;28;20168;-85
2020/12/06 09:12:55;;;;;;;59.97;39.03;;;;;;;;;;5057004;28;20187;-85
2020/12/06 09:15:21;;;;;;;71.47;41.63;;;;;;;;;;5058831;28;20184;-85
2020/12/06 09:17:47;;;;;;;73.13;41.43;;;;;;;;;;5063887;28;20183;-85
2020/12/06 09:20:19;;;;;;;74.47;39.33;;;;;;;;;;5056650;28;20181;-86
2020/12/06 09:22:51;;;;;;;65.50;39.77;;;;;;;;;;5054645;28;20179;-85
2020/12/06 09:25:20;;;;;;;67.80;40.47;;;;;;;;;;5054789;28;20176;-86
2020/12/06 09:27:56;;;;;;;68.93;40.50;;;;;;;;;;5054653;28;20702;-86
2020/12/06 09:30:31;;;;;;;70.97;41.77;;;;;;;;;;5053968;28;20175;-86
2020/12/06 09:33:05;;;;;;;65.27;39.80;;;;;;;;;;5053212;28;20173;-85
2020/12/06 09:35:32;;;;;;;78.90;44.67;;;;;;;;;;5054566;28;20696;-85
2020/12/06 09:38:05;;;;;;;70.03;40.43;;;;;;;;;;5054967;28;20211;-86
2020/12/06 09:40:32;;;;;;;69.43;41.20;;;;;;;;;;5054558;28;20183;-85
2020/12/06 09:43:01;;;;;;;74.07;42.30;;;;;;;;;;5054670;28;20318;-84
2020/12/06 09:45:30;;;;;;;77.87;42.80;;;;;;;;;;5054511;28;20187;-84
2020/12/06 09:48:01;;;;;;;74.73;42.57;;;;;;;;;;5054525;28;20203;-84
2020/12/06 09:50:30;;;;;;;71.40;40.93;;;;;;;;;;5053076;28;20172;-85
2020/12/06 09:53:00;;;;;;;75.53;41.50;;;;;;;;;;5054367;28;20302;-85
2020/12/06 09:55:29;;;;;;;66.43;37.77;;;;;;;;;;5053223;28;20185;-85
2020/12/06 09:58:00;;;;;;;75.63;40.20;;;;;;;;;;5054345;28;20183;-85
2020/12/06 10:00:36;;;;;;;72.83;41.67;;;;;;;;;;5053571;28;20662;-85
2020/12/06 10:03:06;;;;;;;69.90;39.53;;;;;;;;;;5054313;28;20195;-85
2020/12/06 10:05:34;;;;;;;74.23;41.30;;;;;;;;;;5053955;28;20653;-85
2020/12/06 10:08:04;;;;;;;70.90;38.50;;;;;;;;;;5052755;28;20210;-85
2020/12/06 10:10:30;;;;;;;72.60;39.23;;;;;;;;;;5053052;28;20188;-85
2020/12/06 10:13:02;;;;;;;62.30;35.50;;;;;;;;;;5052889;28;20610;-84
2020/12/06 10:15:31;;;;;;;69.90;39.47;;;;;;;;;;5053992;28;20255;-85
2020/12/06 10:18:03;;;;;;;74.97;38.77;;;;;;;;;;5053939;28;20642;-85
2020/12/06 10:20:37;;;;;;;73.80;39.83;;;;;;;;;;5053862;28;20176;-85
2020/12/06 10:23:09;;;;;;;66.40;38.80;;;;;;;;;;5053859;28;20254;-84
2020/12/06 10:25:41;;;;;;;73.60;39.70;;;;;;;;;;5052921;28;20598;-85
2020/12/06 10:28:09;;;;;;;68.00;37.50;;;;;;;;;;5053629;28;20284;-84
2020/12/06 10:30:41;;;;;;;72.27;40.03;;;;;;;;;;5052743;28;20210;-85
2020/12/06 10:33:11;;;;;;;71.77;40.40;;;;;;;;;;5052563;28;20198;-85
2020/12/06 10:35:44;;;;;;;73.77;40.03;;;;;;;;;;5053584;28;20214;-85
2020/12/06 10:38:15;;;;;;;71.40;39.00;;;;;;;;;;5053890;28;20235;-85
2020/12/06 10:40:47;;;;;;;78.50;41.03;;;;;;;;;;5052208;28;20210;-85
2020/12/06 10:43:26;;;;;;;71.07;40.80;;;;;;;;;;5053695;28;20203;-85
2020/12/06 10:45:58;;;;;;;81.03;40.67;;;;;;;;;;5052857;28;20181;-85
2020/12/06 10:48:30;;;;;;;73.83;38.17;;;;;;;;;;5052015;28;20206;-85
2020/12/06 10:51:06;;;;;;;77.77;41.10;;;;;;;;;;5052030;28;20264;-85
2020/12/06 10:53:38;;;;;;;79.27;40.10;;;;;;;;;;5101340;22;20635;-94
2020/12/06 10:56:08;;;;;;;69.67;38.23;;;;;;;;;;5047394;28;20251;-93
2020/12/06 10:58:39;;;;;;;76.93;42.50;;;;;;;;;;5046596;28;20178;-93
2020/12/06 11:01:11;;;;;;;75.57;39.33;;;;;;;;;;5042727;28;20175;-92
2020/12/06 11:03:41;;;;;;;77.40;40.37;;;;;;;;;;5029927;28;20635;-92
2020/12/06 11:06:12;;;;;;;72.27;39.13;;;;;;;;;;5013399;28;20532;-92
2020/12/06 11:08:42;;;;;;;77.10;40.67;;;;;;;;;;5012969;28;20203;-90
2020/12/06 11:11:14;;;;;;;76.03;41.77;;;;;;;;;;5016635;28;20174;-91
2020/12/06 11:13:43;;;;;;;74.23;41.73;;;;;;;;;;5020373;28;20192;-91
2020/12/06 11:16:23;;;;;;;76.33;41.30;;;;;;;;;;5019334;28;20554;-92
2020/12/06 11:19:00;;;;;;;76.27;38.57;;;;;;;;;;5019296;28;20651;-91
2020/12/06 11:21:28;;;;;;;68.00;38.33;;;;;;;;;;5019443;28;20663;-92
2020/12/06 11:24:01;;;;;;;80.33;41.07;;;;;;;;;;5019451;28;20210;-91
2020/12/06 11:26:34;;;;;;;78.07;38.93;;;;;;;;;;5019858;28;20184;-92
2020/12/06 11:29:05;;;;;;;73.20;39.40;;;;;;;;;;5020076;28;20194;-93
2020/12/06 11:31:35;;;;;;;74.77;41.10;;;;;;;;;;5019638;28;20186;-92
2020/12/06 11:34:05;;;;;;;75.37;43.33;;;;;;;;;;5019121;28;20191;-92
2020/12/06 11:36:37;;;;;;;76.83;41.77;;;;;;;;;;5019753;28;20178;-92
2020/12/06 11:39:07;;;;;;;77.57;40.17;;;;;;;;;;5018979;28;20217;-91
2020/12/06 11:41:35;;;;;;;77.77;40.60;;;;;;;;;;5019687;28;20234;-91
2020/12/06 11:44:02;;;;;;;86.67;42.60;;;;;;;;;;5018863;28;20268;-92
2020/12/06 11:46:29;;;;;;;75.10;42.03;;;;;;;;;;5019016;28;20184;-91
2020/12/06 11:48:57;;;;;;;79.80;41.30;;;;;;;;;;5018781;28;20203;-91
2020/12/06 11:51:25;;;;;;;73.67;40.77;;;;;;;;;;5018832;28;20223;-91
2020/12/06 11:53:55;;;;;;;76.10;40.90;;;;;;;;;;5018864;28;20239;-91
2020/12/06 11:56:26;;;;;;;77.27;42.10;;;;;;;;;;5019123;28;20725;-92
2020/12/06 11:58:55;;;;;;;71.53;40.93;;;;;;;;;;5018806;28;20177;-92
2020/12/06 12:01:21;;;;;;;70.07;42.67;;;;;;;;;;5018702;28;20181;-91
2020/12/06 12:03:47;;;;;;;67.50;40.27;;;;;;;;;;5018320;28;20206;-91
2020/12/06 12:06:15;;;;;;;66.90;41.80;;;;;;;;;;5018737;28;20190;-91
2020/12/06 12:08:42;;;;;;;69.77;41.00;;;;;;;;;;5018355;28;20222;-91
2020/12/06 12:11:13;;;;;;;68.97;39.00;;;;;;;;;;5018588;28;20171;-91
2020/12/06 12:13:39;;;;;;;67.93;41.83;;;;;;;;;;5018343;28;20664;-91
2020/12/06 12:16:09;;;;;;;66.40;40.20;;;;;;;;;;5018644;28;20178;-90
2020/12/06 12:18:35;;;;;;;65.97;41.30;;;;;;;;;;5018784;28;20251;-90
2020/12/06 12:21:06;;;;;;;69.87;41.47;;;;;;;;;;5018484;28;20207;-91
2020/12/06 12:23:34;;;;;;;66.10;40.53;;;;;;;;;;5014581;28;20180;-91
2020/12/06 12:26:06;;;;;;;64.13;40.33;;;;;;;;;;5015211;28;20177;-91
2020/12/06 12:28:35;;;;;;;64.20;41.37;;;;;;;;;;5015302;28;20348;-91
2020/12/06 12:31:01;;;;;;;63.60;41.20;;;;;;;;;;5016620;28;20176;-91
2020/12/06 12:33:31;;;;;;;65.00;40.70;;;;;;;;;;5015084;28;20175;-91
2020/12/06 12:35:57;;;;;;;59.87;41.40;;;;;;;;;;5016586;28;20237;-91
2020/12/06 12:38:25;;;;;;;62.30;41.27;;;;;;;;;;5015198;28;20177;-91
2020/12/06 12:40:51;;;;;;;57.53;39.70;;;;;;;;;;5015263;28;20200;-91
2020/12/06 12:43:17;;;;;;;67.80;41.60;;;;;;;;;;5016365;28;20180;-91
2020/12/06 12:45:45;;;;;;;61.20;39.20;;;;;;;;;;5015181;28;20205;-91
2020/12/06 12:48:14;;;;;;;61.70;39.93;;;;;;;;;;5015190;28;20205;-91
2020/12/06 12:50:44;;;;;;;60.07;38.97;;;;;;;;;;5014917;28;20268;-91
2020/12/06 12:53:12;;;;;;;57.97;37.90;;;;;;;;;;5014826;28;20187;-91
2020/12/06 12:55:43;;;;;;;55.83;39.87;;;;;;;;;;5015153;28;20211;-92
2020/12/06 12:58:10;;;;;;;59.07;39.33;;;;;;;;;;5014858;28;20172;-91
2020/12/06 13:00:36;;;;;;;65.73;41.20;;;;;;;;;;5014697;28;20191;-92
2020/12/06 13:03:03;;;;;;;59.23;39.87;;;;;;;;;;5015071;28;20185;-90
2020/12/06 13:05:30;;;;;;;62.67;38.97;;;;;;;;;;5014679;28;20207;-91
2020/12/06 13:07:58;;;;;;;62.00;39.07;;;;;;;;;;5014466;28;20211;-91
2020/12/06 13:10:24;;;;;;;62.80;40.33;;;;;;;;;;5014987;28;20176;-91
2020/12/06 13:12:51;;;;;;;58.40;40.07;;;;;;;;;;5015718;28;20180;-91
2020/12/06 13:15:24;;;;;;;56.07;38.87;;;;;;;;;;5014711;28;20199;-91
2020/12/06 13:17:53;;;;;;;56.67;39.07;;;;;;;;;;5014698;28;20176;-91
2020/12/06 13:20:21;;;;;;;57.73;38.40;;;;;;;;;;5014883;28;20639;-90
2020/12/06 13:22:55;;;;;;;57.77;39.30;;;;;;;;;;5014200;28;20197;-90
2020/12/06 13:25:25;;;;;;;57.87;39.00;;;;;;;;;;5016173;28;20200;-91
2020/12/06 13:27:54;;;;;;;60.43;40.13;;;;;;;;;;5015184;28;20228;-91
2020/12/06 13:30:27;;;;;;;59.07;40.00;;;;;;;;;;5014182;28;20180;-91
2020/12/06 13:32:56;;;;;;;56.53;38.03;;;;;;;;;;5014330;28;20207;-91
2020/12/06 13:35:30;;;;;;;55.27;38.13;;;;;;;;;;5014659;28;20223;-91
2020/12/06 13:38:01;;;;;;;62.27;39.23;;;;;;;;;;5014283;28;20185;-91
2020/12/06 13:40:35;;;;;;;51.77;38.73;;;;;;;;;;5014114;28;20180;-91
2020/12/06 13:43:07;;;;;;;56.77;39.80;;;;;;;;;;5015164;28;20175;-91
2020/12/06 13:45:39;;;;;;;52.47;38.27;;;;;;;;;;5014048;28;20620;-91
2020/12/06 13:48:11;;;;;;;51.90;37.67;;;;;;;;;;5013930;28;20200;-91
2020/12/06 13:50:38;;;;;;;56.80;37.00;;;;;;;;;;5013917;28;20267;-91
2020/12/06 13:53:09;;;;;;;55.57;36.83;;;;;;;;;;5013748;28;20223;-91
2020/12/06 13:55:41;;;;;;;54.63;38.83;;;;;;;;;;5013588;28;20214;-91
2020/12/06 13:58:08;;;;;;;51.67;38.87;;;;;;;;;;5014121;28;20182;-91
2020/12/06 14:00:36;;;;;;;54.60;37.33;;;;;;;;;;5013639;28;20186;-91
2020/12/06 14:03:08;;;;;;;54.23;37.93;;;;;;;;;;5014977;28;20713;-91
2020/12/06 14:05:39;;;;;;;51.40;35.10;;;;;;;;;;5013532;28;20291;-91
2020/12/06 14:08:09;;;;;;;49.93;35.73;;;;;;;;;;5013556;28;20203;-91
2020/12/06 14:10:36;;;;;;;48.47;34.87;;;;;;;;;;5013588;28;20191;-92
2020/12/06 14:13:03;;;;;;;51.10;36.87;;;;;;;;;;5013752;28;20175;-91
2020/12/06 14:15:29;;;;;;;51.53;36.40;;;;;;;;;;5013357;28;20567;-91
2020/12/06 14:17:56;;;;;;;49.37;35.73;;;;;;;;;;5013980;28;20179;-91
2020/12/06 14:20:24;;;;;;;52.40;36.43;;;;;;;;;;5013532;28;20198;-91
2020/12/06 14:22:53;;;;;;;50.47;37.00;;;;;;;;;;5013304;28;20585;-91
2020/12/06 14:25:25;;;;;;;51.70;37.23;;;;;;;;;;5013105;28;20199;-91
2020/12/06 14:27:51;;;;;;;55.70;37.43;;;;;;;;;;5013018;28;20264;-91
2020/12/06 14:30:19;;;;;;;52.50;36.07;;;;;;;;;;5014864;28;20238;-91
2020/12/06 14:32:45;;;;;;;54.93;36.03;;;;;;;;;;5013131;28;20186;-91
2020/12/06 14:35:15;;;;;;;49.70;37.37;;;;;;;;;;5013503;28;20200;-91
2020/12/06 14:37:45;;;;;;;48.27;35.73;;;;;;;;;;5013126;28;20175;-91
2020/12/06 14:40:15;;;;;;;47.30;35.57;;;;;;;;;;5013033;28;20206;-92
2020/12/06 14:42:45;;;;;;;52.23;37.33;;;;;;;;;;5013056;28;20182;-92